createdAt,value
2024-02-23T00:00:12.517Z,9.38
2024-02-23T00:03:14.648Z,9.45
2024-02-23T00:06:18.896Z,9.51
2024-02-23T00:09:21.126Z,9.44
2024-02-23T00:12:23.382Z,9.48
2024-02-23T00:15:26.557Z,9.44
2024-02-23T00:18:28.857Z,9.47
2024-02-23T00:21:31.114Z,9.44
2024-02-23T00:24:33.506Z,9.45
2024-02-23T00:27:35.698Z,9.40
2024-02-23T00:30:38.080Z,9.43
2024-02-23T00:33:43.433Z,9.49
2024-02-23T00:36:46.132Z,9.56
2024-02-23T00:39:48.542Z,9.44
2024-02-23T00:42:50.783Z,9.50
2024-02-23T00:45:52.950Z,9.60
2024-02-23T00:48:55.511Z,9.59
2024-02-23T00:51:57.721Z,9.57
2024-02-23T00:54:59.921Z,9.60
2024-02-23T00:58:02.220Z,9.63
2024-02-23T01:01:04.641Z,9.64
2024-02-23T01:04:06.897Z,9.66
2024-02-23T01:07:09.080Z,9.58
2024-02-23T01:10:11.320Z,9.62
2024-02-23T01:13:13.571Z,9.52
2024-02-23T01:16:16.617Z,9.55
2024-02-23T01:19:20.096Z,9.58
2024-02-23T01:22:22.447Z,9.58
2024-02-23T01:25:24.716Z,9.52
2024-02-23T01:28:27.007Z,9.50
2024-02-23T01:31:29.192Z,9.54
2024-02-23T01:34:31.311Z,9.45
2024-02-23T01:37:33.641Z,9.37
2024-02-23T01:40:36.231Z,9.40
2024-02-23T01:43:38.721Z,9.37
2024-02-23T01:46:40.924Z,9.28
2024-02-23T01:49:43.664Z,9.11
2024-02-23T01:52:45.876Z,9.09
2024-02-23T01:55:48.799Z,9.04
2024-02-23T01:58:51.164Z,9.01
2024-02-23T02:01:53.426Z,8.92
2024-02-23T02:04:55.722Z,8.82
2024-02-23T02:08:00.564Z,8.70
2024-02-23T02:11:03.237Z,8.60
2024-02-23T02:14:05.537Z,8.52
2024-02-23T02:17:08.300Z,8.53
2024-02-23T02:20:14.888Z,8.50
2024-02-23T02:23:17.593Z,8.45
2024-02-23T02:26:20.544Z,8.38
2024-02-23T02:29:23.112Z,8.41
2024-02-23T02:32:25.587Z,8.42
2024-02-23T02:35:27.882Z,8.37
2024-02-23T02:38:30.283Z,8.37
2024-02-23T02:41:32.671Z,8.51
2024-02-23T02:44:34.940Z,8.52
2024-02-23T02:47:37.744Z,8.53
2024-02-23T02:50:40.745Z,8.50
2024-02-23T02:53:43.047Z,8.53
2024-02-23T02:56:46.805Z,8.56
2024-02-23T02:59:51.204Z,8.55
2024-02-23T03:02:54.230Z,8.49
2024-02-23T03:05:56.525Z,8.41
2024-02-23T03:08:58.692Z,8.31
2024-02-23T03:12:00.971Z,8.29
2024-02-23T03:15:06.664Z,8.16
2024-02-23T03:18:10.852Z,8.11
2024-02-23T03:21:14.211Z,7.98
2024-02-23T03:24:16.396Z,7.94
2024-02-23T03:27:18.576Z,7.94
2024-02-23T03:30:20.779Z,7.92
2024-02-23T03:33:23.078Z,7.63
2024-02-23T03:36:25.319Z,7.81
2024-02-23T03:39:27.564Z,7.84
2024-02-23T03:42:29.716Z,7.75
2024-02-23T03:45:31.955Z,7.69
2024-02-23T03:48:34.219Z,7.68
2024-02-23T03:51:40.333Z,7.65
2024-02-23T03:54:42.631Z,7.63
2024-02-23T03:57:47.468Z,7.69
2024-02-23T04:00:49.982Z,7.67
2024-02-23T04:03:52.172Z,7.69
2024-02-23T04:06:54.327Z,7.72
2024-02-23T04:09:56.437Z,7.68
2024-02-23T04:12:59.223Z,7.74
2024-02-23T04:16:02.247Z,7.71
2024-02-23T04:19:04.628Z,7.79
2024-02-23T04:22:09.833Z,7.75
2024-02-23T04:25:12.063Z,7.71
2024-02-23T04:28:14.245Z,7.72
2024-02-23T04:31:16.590Z,7.58
2024-02-23T04:34:18.824Z,7.42
2024-02-23T04:37:21.094Z,7.34
2024-02-23T04:40:23.287Z,7.35
2024-02-23T04:43:26.039Z,7.27
2024-02-23T04:47:26.506Z,-145.42
2024-02-23T04:51:27.375Z,-145.42
2024-02-23T04:55:28.092Z,-145.42
2024-02-23T04:59:29.356Z,-145.42
2024-02-23T05:03:30.139Z,-145.42
2024-02-23T05:07:33.908Z,-145.42
2024-02-23T05:11:34.861Z,-145.42
2024-02-23T05:15:35.664Z,-145.42
2024-02-23T05:19:37.586Z,-145.42
2024-02-23T05:23:38.799Z,-145.42
2024-02-23T05:26:41.023Z,7.67
2024-02-23T05:29:43.244Z,7.69
2024-02-23T05:32:45.632Z,7.68
2024-02-23T05:35:49.842Z,7.76
2024-02-23T05:38:51.994Z,7.80
2024-02-23T05:41:54.311Z,7.88
2024-02-23T05:44:56.504Z,7.87
2024-02-23T05:47:59.121Z,7.79
2024-02-23T05:51:01.635Z,7.76
2024-02-23T05:54:03.987Z,7.73
2024-02-23T05:57:06.210Z,7.68
2024-02-23T06:00:08.751Z,7.65
2024-02-23T06:03:14.580Z,7.64
2024-02-23T06:06:17.032Z,7.66
2024-02-23T06:09:20.224Z,7.64
2024-02-23T06:12:22.933Z,7.61
2024-02-23T06:15:25.154Z,7.65
2024-02-23T06:18:27.335Z,7.64
2024-02-23T06:21:29.622Z,7.59
2024-02-23T06:24:31.767Z,7.63
2024-02-23T06:27:34.174Z,7.60
2024-02-23T06:30:36.297Z,7.60
2024-02-23T06:33:38.714Z,7.56
2024-02-23T06:36:41.148Z,7.59
2024-02-23T06:39:43.341Z,7.61
2024-02-23T06:42:45.510Z,7.64
2024-02-23T06:45:47.682Z,7.66
2024-02-23T06:48:50.113Z,7.69
2024-02-23T06:51:52.354Z,7.76
2024-02-23T06:54:54.552Z,7.76
2024-02-23T06:57:56.697Z,7.80
2024-02-23T07:00:59.091Z,7.79
2024-02-23T07:04:01.423Z,7.75
2024-02-23T07:07:08.359Z,7.78
2024-02-23T07:10:11.662Z,7.79
2024-02-23T07:13:13.913Z,7.86
2024-02-23T07:16:16.196Z,7.87
2024-02-23T07:19:18.585Z,7.96
2024-02-23T07:22:21.510Z,7.97
2024-02-23T07:25:23.815Z,8.02
2024-02-23T07:28:25.921Z,7.99
2024-02-23T07:31:28.418Z,7.96
2024-02-23T07:34:32.612Z,8.01
2024-02-23T07:37:35.006Z,7.98
2024-02-23T07:40:37.313Z,7.94
2024-02-23T07:43:39.467Z,7.93
2024-02-23T07:46:42.946Z,7.92
2024-02-23T07:49:45.232Z,7.94
2024-02-23T07:52:47.537Z,7.92
2024-02-23T07:55:49.762Z,8.00
2024-02-23T07:58:53.322Z,7.95
2024-02-23T08:01:56.704Z,8.08
2024-02-23T08:04:59.156Z,8.08
2024-02-23T08:08:02.593Z,8.09
2024-02-23T08:11:05.271Z,8.10
2024-02-23T08:14:07.568Z,8.20
2024-02-23T08:17:09.790Z,8.28
2024-02-23T08:20:12.305Z,8.33
2024-02-23T08:23:14.961Z,8.38
2024-02-23T08:26:17.421Z,8.36
2024-02-23T08:29:19.716Z,8.35
2024-02-23T08:32:22.034Z,8.39
2024-02-23T08:35:24.498Z,8.40
2024-02-23T08:38:26.827Z,8.45
2024-02-23T08:41:29.000Z,8.59
2024-02-23T08:44:31.243Z,8.65
2024-02-23T08:47:36.148Z,8.59
2024-02-23T08:50:39.514Z,8.57
2024-02-23T08:53:45.679Z,8.59
2024-02-23T08:56:47.978Z,8.59
2024-02-23T08:59:50.995Z,8.78
2024-02-23T09:02:53.174Z,8.93
2024-02-23T09:05:55.467Z,8.95
2024-02-23T09:08:57.766Z,8.95
2024-02-23T09:12:00.069Z,9.02
2024-02-23T09:15:02.345Z,9.04
2024-02-23T09:18:04.782Z,9.09
2024-02-23T09:21:07.851Z,9.01
2024-02-23T09:24:10.151Z,9.00
2024-02-23T09:27:12.383Z,9.09
2024-02-23T09:30:15.251Z,9.02
2024-02-23T09:33:17.535Z,9.12
2024-02-23T09:36:19.840Z,9.07
2024-02-23T09:39:22.026Z,9.07
2024-02-23T09:42:29.736Z,9.10
2024-02-23T09:45:36.240Z,9.07
2024-02-23T09:48:40.791Z,9.19
2024-02-23T09:51:44.893Z,9.20
2024-02-23T09:54:47.126Z,9.31
2024-02-23T09:57:52.473Z,9.36
2024-02-23T10:00:55.131Z,9.34
2024-02-23T10:04:01.434Z,9.29
2024-02-23T10:07:05.796Z,9.16
2024-02-23T10:10:09.746Z,9.10
2024-02-23T10:13:11.970Z,9.16
2024-02-23T10:16:15.828Z,9.22
2024-02-23T10:19:18.691Z,9.20
2024-02-23T10:22:22.646Z,9.16
2024-02-23T10:25:25.552Z,9.19
2024-02-23T10:28:29.329Z,9.12
2024-02-23T10:31:39.953Z,9.15
2024-02-23T10:34:45.511Z,9.26
2024-02-23T10:37:54.526Z,9.32
2024-02-23T10:40:59.982Z,9.25
2024-02-23T10:44:04.771Z,9.24
2024-02-23T10:47:08.350Z,9.27
2024-02-23T10:50:11.904Z,9.21
2024-02-23T10:53:15.297Z,9.23
2024-02-23T10:56:17.610Z,9.24
2024-02-23T10:59:20.898Z,9.29
2024-02-23T11:02:26.838Z,9.32
2024-02-23T11:05:29.512Z,9.29
2024-02-23T11:08:34.185Z,9.31
2024-02-23T11:11:38.171Z,9.25
2024-02-23T11:14:40.695Z,9.14
2024-02-23T11:17:43.014Z,9.14
2024-02-23T11:20:45.268Z,9.18
2024-02-23T11:23:53.467Z,9.25
2024-02-23T11:27:00.266Z,9.30
2024-02-23T11:30:04.770Z,9.40
2024-02-23T11:33:09.240Z,9.44
2024-02-23T11:36:12.295Z,9.42
2024-02-23T11:39:14.804Z,9.44
2024-02-23T11:42:17.032Z,9.50
2024-02-23T11:45:19.525Z,9.64
2024-02-23T11:48:24.697Z,9.61
2024-02-23T11:51:30.326Z,9.60
2024-02-23T11:54:32.594Z,9.63
2024-02-23T11:57:43.056Z,9.77
2024-02-23T12:00:51.979Z,9.86
2024-02-23T12:03:54.223Z,9.89
2024-02-23T12:06:57.262Z,9.93
2024-02-23T12:09:59.700Z,10.15
2024-02-23T12:13:01.999Z,10.33
2024-02-23T12:16:04.600Z,10.37
2024-02-23T12:19:09.378Z,10.37
2024-02-23T12:22:13.461Z,10.32
2024-02-23T12:25:16.348Z,10.31
2024-02-23T12:28:21.850Z,10.23
2024-02-23T12:31:27.623Z,10.19
2024-02-23T12:34:30.284Z,10.25
2024-02-23T12:37:36.644Z,10.38
2024-02-23T12:40:39.359Z,10.55
2024-02-23T12:43:43.496Z,10.60
2024-02-23T12:46:46.672Z,10.66
2024-02-23T12:49:50.211Z,10.61
2024-02-23T12:52:53.292Z,10.54
2024-02-23T12:55:55.613Z,10.46
2024-02-23T12:58:58.579Z,10.41
2024-02-23T13:02:01.158Z,10.34
2024-02-23T13:05:03.796Z,10.28
2024-02-23T13:08:06.710Z,10.24
2024-02-23T13:11:09.339Z,10.14
2024-02-23T13:14:11.730Z,10.15
2024-02-23T13:17:14.057Z,10.08
2024-02-23T13:20:16.365Z,9.96
2024-02-23T13:23:18.696Z,9.94
2024-02-23T13:26:20.964Z,10.01
2024-02-23T13:29:23.280Z,10.03
2024-02-23T13:32:25.794Z,9.94
2024-02-23T13:35:36.059Z,9.90
2024-02-23T13:38:40.685Z,9.86
2024-02-23T13:41:43.448Z,9.86
2024-02-23T13:44:46.361Z,9.89
2024-02-23T13:48:02.852Z,9.90
2024-02-23T13:51:06.151Z,9.89
2024-02-23T13:54:08.392Z,9.82
2024-02-23T13:57:10.731Z,9.86
2024-02-23T14:00:13.878Z,9.78
2024-02-23T14:03:21.769Z,9.76
2024-02-23T14:06:25.048Z,9.79
2024-02-23T14:09:27.292Z,9.79
2024-02-23T14:12:30.627Z,9.83
2024-02-23T14:15:41.176Z,9.81
2024-02-23T14:18:45.454Z,9.70
2024-02-23T14:21:49.681Z,9.71
2024-02-23T14:24:52.147Z,9.73
2024-02-23T14:27:56.688Z,9.72
2024-02-23T14:30:59.298Z,9.70
2024-02-23T14:34:01.574Z,9.69
2024-02-23T14:37:04.005Z,9.66
2024-02-23T14:40:06.912Z,9.64
2024-02-23T14:43:10.608Z,9.56
2024-02-23T14:46:13.356Z,9.48
2024-02-23T14:49:15.647Z,9.43
2024-02-23T14:52:17.990Z,9.50
2024-02-23T14:55:20.157Z,9.51
2024-02-23T14:58:22.394Z,9.42
2024-02-23T15:01:24.720Z,9.38
2024-02-23T15:04:27.012Z,9.29
2024-02-23T15:07:29.552Z,9.27
2024-02-23T15:10:37.737Z,9.23
2024-02-23T15:13:40.239Z,9.25
2024-02-23T15:16:42.466Z,9.17
2024-02-23T15:19:44.700Z,9.16
2024-02-23T15:22:48.064Z,9.18
2024-02-23T15:25:57.483Z,9.18
2024-02-23T15:29:06.729Z,9.17
2024-02-23T15:32:09.014Z,9.11
2024-02-23T15:35:11.303Z,9.10
2024-02-23T15:38:13.537Z,9.10
2024-02-23T15:41:15.825Z,9.08
2024-02-23T15:44:20.814Z,9.10
2024-02-23T15:47:23.749Z,9.11
2024-02-23T15:50:42.894Z,9.11
2024-02-23T15:53:50.690Z,9.11
2024-02-23T15:56:52.936Z,9.07
2024-02-23T16:00:02.740Z,9.07
2024-02-23T16:03:07.206Z,9.07
2024-02-23T16:06:09.585Z,8.98
2024-02-23T16:09:16.127Z,9.02
2024-02-23T16:12:18.452Z,9.09
2024-02-23T16:15:20.976Z,9.05
2024-02-23T16:18:23.255Z,8.97
2024-02-23T16:21:25.512Z,8.96
2024-02-23T16:24:27.700Z,8.92
2024-02-23T16:27:29.947Z,8.91
2024-02-23T16:30:33.684Z,8.89
2024-02-23T16:33:35.970Z,8.87
2024-02-23T16:36:38.149Z,8.86
2024-02-23T16:39:40.304Z,8.90
2024-02-23T16:42:43.595Z,8.84
2024-02-23T16:45:51.145Z,8.82
2024-02-23T16:48:53.399Z,8.84
2024-02-23T16:51:55.813Z,8.77
2024-02-23T16:54:59.126Z,8.74
2024-02-23T16:58:01.369Z,8.76
2024-02-23T17:01:05.895Z,8.70
2024-02-23T17:04:08.217Z,8.73
2024-02-23T17:07:10.507Z,8.79
2024-02-23T17:10:12.716Z,8.82
2024-02-23T17:13:14.864Z,8.77
2024-02-23T17:16:17.067Z,8.82
2024-02-23T17:19:19.263Z,8.89
2024-02-23T17:22:25.819Z,8.87
2024-02-23T17:25:28.012Z,8.86
2024-02-23T17:28:31.560Z,8.90
2024-02-23T17:31:33.950Z,8.92
2024-02-23T17:34:36.198Z,8.92
2024-02-23T17:37:38.593Z,8.91
2024-02-23T17:40:40.800Z,8.93
2024-02-23T17:43:42.987Z,8.88
2024-02-23T17:46:48.943Z,8.77
2024-02-23T17:49:51.401Z,8.82
2024-02-23T17:52:53.714Z,8.88
2024-02-23T17:55:58.709Z,8.89
2024-02-23T17:59:01.233Z,8.86
2024-02-23T18:02:03.615Z,8.90
2024-02-23T18:05:06.260Z,8.77
2024-02-23T18:08:08.950Z,8.72
2024-02-23T18:11:11.396Z,8.74
2024-02-23T18:14:17.022Z,8.67
2024-02-23T18:17:19.301Z,8.73
2024-02-23T18:20:21.570Z,8.62
2024-02-23T18:23:24.190Z,8.58
2024-02-23T18:26:26.396Z,8.50
2024-02-23T18:29:28.784Z,8.50
2024-02-23T18:32:31.143Z,8.55
2024-02-23T18:35:33.562Z,8.49
2024-02-23T18:38:35.813Z,8.36
2024-02-23T18:41:41.311Z,8.34
2024-02-23T18:44:43.676Z,8.33
2024-02-23T18:47:46.331Z,8.29
2024-02-23T18:50:49.534Z,8.30
2024-02-23T18:53:51.815Z,8.26
2024-02-23T18:56:54.296Z,8.30
2024-02-23T18:59:56.999Z,8.27
2024-02-23T19:02:59.346Z,8.17
2024-02-23T19:06:02.078Z,8.20
2024-02-23T19:09:06.197Z,8.17
2024-02-23T19:12:10.699Z,8.16
2024-02-23T19:15:13.244Z,8.13
2024-02-23T19:18:15.634Z,8.13
2024-02-23T19:21:19.577Z,8.11
2024-02-23T19:24:22.165Z,8.12
2024-02-23T19:27:24.445Z,8.09
2024-02-23T19:30:37.358Z,8.08
2024-02-23T19:33:39.991Z,8.09
2024-02-23T19:36:42.299Z,8.10
2024-02-23T19:39:47.389Z,8.09
2024-02-23T19:42:51.545Z,8.11
2024-02-23T19:46:00.687Z,8.07
2024-02-23T19:49:10.116Z,8.07
2024-02-23T19:52:15.069Z,8.05
2024-02-23T19:55:17.675Z,8.08
2024-02-23T19:58:19.847Z,8.09
2024-02-23T20:01:22.364Z,8.03
2024-02-23T20:04:24.609Z,8.07
2024-02-23T20:07:26.928Z,8.03
2024-02-23T20:10:38.257Z,8.12
2024-02-23T20:13:40.807Z,8.07
2024-02-23T20:16:43.136Z,8.07
2024-02-23T20:19:45.492Z,8.15
2024-02-23T20:22:47.789Z,8.14
2024-02-23T20:25:50.030Z,8.17
2024-02-23T20:28:52.279Z,8.15
2024-02-23T20:31:54.474Z,8.15
2024-02-23T20:34:58.163Z,8.14
2024-02-23T20:38:01.858Z,8.19
2024-02-23T20:41:04.485Z,8.13
2024-02-23T20:44:06.668Z,8.14
2024-02-23T20:47:10.394Z,8.15
2024-02-23T20:50:12.907Z,8.15
2024-02-23T20:53:15.204Z,8.21
2024-02-23T20:56:18.576Z,8.17
2024-02-23T20:59:20.947Z,8.25
2024-02-23T21:02:23.407Z,8.28
2024-02-23T21:05:25.704Z,8.20
2024-02-23T21:08:27.894Z,8.24
2024-02-23T21:11:30.577Z,8.21
2024-02-23T21:14:33.112Z,8.17
2024-02-23T21:17:35.359Z,8.10
2024-02-23T21:20:37.777Z,8.20
2024-02-23T21:23:40.145Z,8.16
2024-02-23T21:26:44.156Z,8.20
2024-02-23T21:29:46.716Z,8.15
2024-02-23T21:32:49.602Z,8.19
2024-02-23T21:35:51.865Z,8.09
2024-02-23T21:38:54.052Z,8.07
2024-02-23T21:41:56.442Z,8.08
2024-02-23T21:44:58.705Z,8.01
2024-02-23T21:48:01.097Z,8.05
2024-02-23T21:51:04.623Z,8.07
2024-02-23T21:54:06.853Z,8.08
2024-02-23T21:57:10.306Z,8.04
2024-02-23T22:00:12.991Z,8.01
2024-02-23T22:03:15.250Z,7.98
2024-02-23T22:06:20.557Z,7.94
2024-02-23T22:09:22.772Z,7.99
2024-02-23T22:12:29.231Z,7.94
2024-02-23T22:15:31.347Z,7.94
2024-02-23T22:18:34.584Z,8.06
2024-02-23T22:21:37.189Z,7.92
2024-02-23T22:24:39.777Z,7.93
2024-02-23T22:27:41.957Z,8.02
2024-02-23T22:30:49.340Z,7.96
2024-02-23T22:33:51.658Z,8.00
2024-02-23T22:36:53.923Z,7.97
2024-02-23T22:39:56.078Z,7.94
2024-02-23T22:42:58.682Z,7.93
2024-02-23T22:46:02.237Z,7.94
2024-02-23T22:49:05.086Z,7.94
2024-02-23T22:52:07.714Z,7.98
2024-02-23T22:55:09.953Z,7.96
2024-02-23T22:58:12.577Z,7.90
2024-02-23T23:01:15.079Z,7.92
2024-02-23T23:04:17.358Z,7.97
2024-02-23T23:07:19.684Z,7.95
2024-02-23T23:10:21.924Z,8.03
2024-02-23T23:13:23.970Z,7.96
2024-02-23T23:16:26.209Z,7.96
2024-02-23T23:19:28.548Z,7.93
2024-02-23T23:22:30.801Z,7.92
2024-02-23T23:25:34.652Z,7.90
2024-02-23T23:28:36.853Z,7.91
2024-02-23T23:31:39.056Z,7.97
2024-02-23T23:34:44.300Z,7.95
2024-02-23T23:37:46.496Z,7.98
2024-02-23T23:40:48.719Z,8.00
2024-02-23T23:43:51.364Z,8.02
2024-02-23T23:46:53.750Z,8.02
2024-02-23T23:49:55.928Z,8.01
2024-02-23T23:52:58.087Z,8.01
2024-02-23T23:56:00.201Z,8.05
2024-02-23T23:59:02.322Z,8.00
